sensor_id;sensor_type;location;lat;lon;timestamp;pressure;altitude;pressure_sealevel;temperature;humidity
8501;BME280;4288;48.484;10.024;2023-03-04T02:20:11;163622.00;;;-143.23;0.00
8501;BME280;4288;48.484;10.024;2023-03-04T07:58:25;164154.41;;;21.42;0.00
8501;BME280;4288;48.484;10.024;2023-03-04T08:37:42;95336.75;;;-2.30;nan
8501;BME280;4288;48.484;10.024;2023-03-04T08:40:12;96022.22;;;2.21;nan
8501;BME280;4288;48.484;10.024;2023-03-04T08:42:40;96017.91;;;2.00;nan
8501;BME280;4288;48.484;10.024;2023-03-04T08:45:09;96024.44;;;2.95;nan
8501;BME280;4288;48.484;10.024;2023-03-04T08:47:36;96022.31;;;2.80;nan
8501;BME280;4288;48.484;10.024;2023-03-04T08:50:07;96030.38;;;2.83;nan
8501;BME280;4288;48.484;10.024;2023-03-04T08:52:35;96025.75;;;2.80;nan
8501;BME280;4288;48.484;10.024;2023-03-04T08:55:02;96020.00;;;2.78;nan
8501;BME280;4288;48.484;10.024;2023-03-04T08:57:29;96031.16;;;2.84;nan
8501;BME280;4288;48.484;10.024;2023-03-04T08:59:56;96033.88;;;3.04;nan
8501;BME280;4288;48.484;10.024;2023-03-04T09:02:23;96039.09;;;2.75;nan
8501;BME280;4288;48.484;10.024;2023-03-04T09:04:50;96044.66;;;2.44;nan
8501;BME280;4288;48.484;10.024;2023-03-04T09:07:19;96033.47;;;3.43;nan
8501;BME280;4288;48.484;10.024;2023-03-04T09:09:46;96047.59;;;3.18;nan
8501;BME280;4288;48.484;10.024;2023-03-04T09:12:13;96047.00;;;2.84;nan
8501;BME280;4288;48.484;10.024;2023-03-04T09:14:40;96047.66;;;2.81;nan
8501;BME280;4288;48.484;10.024;2023-03-04T09:17:07;96045.88;;;2.93;nan
8501;BME280;4288;48.484;10.024;2023-03-04T09:19:34;96043.13;;;3.10;nan
8501;BME280;4288;48.484;10.024;2023-03-04T09:22:02;96048.16;;;2.65;nan
8501;BME280;4288;48.484;10.024;2023-03-04T09:24:30;96045.88;;;3.22;nan
8501;BME280;4288;48.484;10.024;2023-03-04T09:26:58;96043.03;;;3.56;nan
8501;BME280;4288;48.484;10.024;2023-03-04T09:29:25;96045.13;;;4.04;nan
8501;BME280;4288;48.484;10.024;2023-03-04T09:31:52;96044.88;;;5.47;nan
8501;BME280;4288;48.484;10.024;2023-03-04T09:34:19;96039.69;;;5.38;nan
8501;BME280;4288;48.484;10.024;2023-03-04T09:36:46;96016.63;;;6.18;nan
8501;BME280;4288;48.484;10.024;2023-03-04T09:39:13;96063.53;;;5.75;nan
8501;BME280;4288;48.484;10.024;2023-03-04T09:41:44;96058.34;;;5.54;nan
8501;BME280;4288;48.484;10.024;2023-03-04T09:44:22;96067.00;;;4.46;nan
8501;BME280;4288;48.484;10.024;2023-03-04T09:46:51;96065.66;;;3.66;nan
8501;BME280;4288;48.484;10.024;2023-03-04T09:49:20;96070.97;;;3.37;nan
8501;BME280;4288;48.484;10.024;2023-03-04T09:51:58;96060.41;;;3.57;nan
8501;BME280;4288;48.484;10.024;2023-03-04T09:54:51;96059.03;;;3.02;nan
8501;BME280;4288;48.484;10.024;2023-03-04T09:57:28;96067.97;;;3.18;nan
8501;BME280;4288;48.484;10.024;2023-03-04T10:00:09;96068.59;;;4.06;nan
8501;BME280;4288;48.484;10.024;2023-03-04T10:03:09;96059.66;;;5.72;nan
8501;BME280;4288;48.484;10.024;2023-03-04T10:05:43;96061.88;;;6.22;nan
8501;BME280;4288;48.484;10.024;2023-03-04T10:08:33;96066.09;;;4.87;nan
8501;BME280;4288;48.484;10.024;2023-03-04T10:11:11;96070.28;;;4.31;nan
8501;BME280;4288;48.484;10.024;2023-03-04T10:13:52;96056.63;;;4.53;nan
8501;BME280;4288;48.484;10.024;2023-03-04T10:16:25;96048.19;;;4.72;nan
8501;BME280;4288;48.484;10.024;2023-03-04T10:18:58;96069.66;;;4.13;nan
8501;BME280;4288;48.484;10.024;2023-03-04T10:21:32;96050.72;;;4.68;nan
8501;BME280;4288;48.484;10.024;2023-03-04T10:24:08;96063.34;;;5.07;nan
8501;BME280;4288;48.484;10.024;2023-03-04T10:26:39;96056.53;;;3.96;nan
8501;BME280;4288;48.484;10.024;2023-03-04T10:29:13;96064.81;;;3.74;nan
8501;BME280;4288;48.484;10.024;2023-03-04T10:31:42;96058.50;;;3.67;nan
8501;BME280;4288;48.484;10.024;2023-03-04T10:34:12;96062.63;;;3.26;nan
8501;BME280;4288;48.484;10.024;2023-03-04T10:36:52;96055.44;;;3.06;nan
8501;BME280;4288;48.484;10.024;2023-03-04T10:39:25;96052.59;;;4.02;nan
8501;BME280;4288;48.484;10.024;2023-03-04T10:41:57;96058.13;;;4.30;nan
8501;BME280;4288;48.484;10.024;2023-03-04T10:44:28;96058.69;;;4.80;nan
8501;BME280;4288;48.484;10.024;2023-03-04T10:46:57;96055.84;;;4.52;nan
8501;BME280;4288;48.484;10.024;2023-03-04T10:49:26;96050.66;;;5.13;nan
8501;BME280;4288;48.484;10.024;2023-03-04T10:52:00;96047.44;;;5.19;nan
8501;BME280;4288;48.484;10.024;2023-03-04T10:54:30;96046.97;;;4.69;nan
8501;BME280;4288;48.484;10.024;2023-03-04T10:57:00;96053.81;;;3.72;nan
8501;BME280;4288;48.484;10.024;2023-03-04T10:59:45;96046.84;;;4.21;nan
8501;BME280;4288;48.484;10.024;2023-03-04T11:02:24;96045.03;;;5.26;nan
8501;BME280;4288;48.484;10.024;2023-03-04T11:05:04;96044.28;;;5.90;nan
8501;BME280;4288;48.484;10.024;2023-03-04T11:07:36;96045.03;;;5.02;nan
8501;BME280;4288;48.484;10.024;2023-03-04T11:10:09;96036.28;;;4.66;nan
8501;BME280;4288;48.484;10.024;2023-03-04T11:12:36;96045.69;;;4.87;nan
8501;BME280;4288;48.484;10.024;2023-03-04T11:15:20;96033.41;;;5.55;nan
8501;BME280;4288;48.484;10.024;2023-03-04T11:17:54;96045.44;;;5.40;nan
8501;BME280;4288;48.484;10.024;2023-03-04T11:20:30;96028.81;;;5.16;nan
8501;BME280;4288;48.484;10.024;2023-03-04T11:23:04;96028.59;;;5.73;nan
8501;BME280;4288;48.484;10.024;2023-03-04T11:25:35;96038.31;;;6.95;nan
8501;BME280;4288;48.484;10.024;2023-03-04T11:28:08;96041.81;;;6.83;nan
8501;BME280;4288;48.484;10.024;2023-03-04T11:30:46;96033.59;;;6.14;nan
8501;BME280;4288;48.484;10.024;2023-03-04T11:33:24;96028.53;;;5.57;nan
8501;BME280;4288;48.484;10.024;2023-03-04T11:36:07;96031.44;;;6.47;nan
8501;BME280;4288;48.484;10.024;2023-03-04T11:38:39;96027.38;;;5.30;nan
8501;BME280;4288;48.484;10.024;2023-03-04T11:41:13;96028.47;;;4.04;nan
8501;BME280;4288;48.484;10.024;2023-03-04T11:43:43;96032.84;;;3.88;nan
8501;BME280;4288;48.484;10.024;2023-03-04T11:49:54;96046.03;;;2.50;nan
8501;BME280;4288;48.484;10.024;2023-03-04T11:52:42;96030.84;;;2.39;nan
8501;BME280;4288;48.484;10.024;2023-03-04T11:55:33;96033.22;;;2.78;nan
8501;BME280;4288;48.484;10.024;2023-03-04T11:58:28;96022.09;;;2.64;nan
8501;BME280;4288;48.484;10.024;2023-03-04T12:01:07;96020.53;;;1.48;nan
8501;BME280;4288;48.484;10.024;2023-03-04T12:04:03;96028.31;;;1.79;nan
8501;BME280;4288;48.484;10.024;2023-03-04T12:06:43;96017.75;;;1.96;nan
8501;BME280;4288;48.484;10.024;2023-03-04T12:09:28;96021.31;;;1.32;nan
8501;BME280;4288;48.484;10.024;2023-03-04T12:12:10;96034.16;;;1.33;nan
8501;BME280;4288;48.484;10.024;2023-03-04T12:14:46;96013.84;;;1.08;nan
8501;BME280;4288;48.484;10.024;2023-03-04T12:20:32;96012.16;;;1.12;nan
8501;BME280;4288;48.484;10.024;2023-03-04T12:23:17;96003.75;;;1.02;nan
8501;BME280;4288;48.484;10.024;2023-03-04T12:25:54;96005.44;;;0.89;nan
8501;BME280;4288;48.484;10.024;2023-03-04T12:28:47;95993.66;;;0.86;nan
8501;BME280;4288;48.484;10.024;2023-03-04T12:31:33;95987.28;;;0.70;nan
8501;BME280;4288;48.484;10.024;2023-03-04T12:37:50;95988.28;;;1.00;nan
8501;BME280;4288;48.484;10.024;2023-03-04T12:40:31;95977.50;;;1.36;nan
8501;BME280;4288;48.484;10.024;2023-03-04T12:43:15;95976.25;;;1.33;nan
8501;BME280;4288;48.484;10.024;2023-03-04T12:45:58;95977.94;;;1.12;nan
8501;BME280;4288;48.484;10.024;2023-03-04T12:48:30;95973.13;;;1.06;nan
8501;BME280;4288;48.484;10.024;2023-03-04T12:51:16;95978.22;;;0.94;nan
8501;BME280;4288;48.484;10.024;2023-03-04T12:54:01;95973.31;;;1.09;nan
8501;BME280;4288;48.484;10.024;2023-03-04T12:56:38;95975.88;;;0.92;nan
8501;BME280;4288;48.484;10.024;2023-03-04T12:59:14;95967.69;;;0.85;nan
8501;BME280;4288;48.484;10.024;2023-03-04T13:01:47;95955.91;;;0.74;nan
8501;BME280;4288;48.484;10.024;2023-03-04T13:04:22;95959.59;;;0.73;nan
8501;BME280;4288;48.484;10.024;2023-03-04T13:07:07;95958.22;;;0.84;nan
8501;BME280;4288;48.484;10.024;2023-03-04T13:09:49;95962.28;;;0.99;nan
8501;BME280;4288;48.484;10.024;2023-03-04T13:12:19;95969.69;;;0.88;nan
8501;BME280;4288;48.484;10.024;2023-03-04T13:15:24;95965.38;;;1.01;nan
8501;BME280;4288;48.484;10.024;2023-03-04T13:17:52;95958.72;;;0.95;nan
8501;BME280;4288;48.484;10.024;2023-03-04T13:20:34;95965.22;;;0.97;nan
8501;BME280;4288;48.484;10.024;2023-03-04T13:23:15;95956.22;;;0.81;nan
8501;BME280;4288;48.484;10.024;2023-03-04T13:26:06;95953.00;;;0.93;nan
8501;BME280;4288;48.484;10.024;2023-03-04T13:28:35;95950.09;;;1.11;nan
8501;BME280;4288;48.484;10.024;2023-03-04T13:31:13;95963.22;;;1.20;nan
8501;BME280;4288;48.484;10.024;2023-03-04T13:34:03;95954.69;;;1.06;nan
8501;BME280;4288;48.484;10.024;2023-03-04T13:39:34;95949.34;;;0.63;nan
8501;BME280;4288;48.484;10.024;2023-03-04T13:44:59;95955.50;;;1.23;nan
8501;BME280;4288;48.484;10.024;2023-03-04T13:47:45;95936.75;;;1.42;nan
8501;BME280;4288;48.484;10.024;2023-03-04T13:50:32;95933.31;;;1.75;nan
8501;BME280;4288;48.484;10.024;2023-03-04T13:53:28;95939.38;;;1.50;nan
8501;BME280;4288;48.484;10.024;2023-03-04T13:59:23;95933.78;;;1.69;nan
8501;BME280;4288;48.484;10.024;2023-03-04T14:02:02;95931.97;;;2.16;nan
8501;BME280;4288;48.484;10.024;2023-03-04T14:04:32;95929.66;;;2.06;nan
8501;BME280;4288;48.484;10.024;2023-03-04T14:07:02;95932.69;;;1.78;nan
8501;BME280;4288;48.484;10.024;2023-03-04T14:09:32;95936.25;;;1.83;nan
8501;BME280;4288;48.484;10.024;2023-03-04T14:12:02;95933.78;;;1.60;nan
8501;BME280;4288;48.484;10.024;2023-03-04T14:14:41;95935.47;;;1.91;nan
8501;BME280;4288;48.484;10.024;2023-03-04T14:17:17;95936.66;;;2.02;nan
8501;BME280;4288;48.484;10.024;2023-03-04T14:19:47;95935.28;;;1.96;nan
8501;BME280;4288;48.484;10.024;2023-03-04T14:22:22;95941.81;;;1.90;nan
8501;BME280;4288;48.484;10.024;2023-03-04T14:24:59;95942.47;;;1.52;nan
8501;BME280;4288;48.484;10.024;2023-03-04T14:27:27;95944.81;;;1.37;nan
8501;BME280;4288;48.484;10.024;2023-03-04T14:29:58;95933.53;;;1.36;nan
8501;BME280;4288;48.484;10.024;2023-03-04T14:32:27;95929.03;;;1.28;nan
8501;BME280;4288;48.484;10.024;2023-03-04T14:34:58;95920.81;;;1.38;nan
8501;BME280;4288;48.484;10.024;2023-03-04T14:37:35;95925.00;;;1.48;nan
8501;BME280;4288;48.484;10.024;2023-03-04T14:40:05;95917.88;;;1.23;nan
8501;BME280;4288;48.484;10.024;2023-03-04T14:42:38;95912.28;;;1.50;nan
8501;BME280;4288;48.484;10.024;2023-03-04T14:45:10;95912.91;;;1.55;nan
8501;BME280;4288;48.484;10.024;2023-03-04T14:47:41;95914.91;;;1.50;nan
8501;BME280;4288;48.484;10.024;2023-03-04T14:50:14;95910.28;;;1.38;nan
8501;BME280;4288;48.484;10.024;2023-03-04T14:52:45;95909.81;;;1.53;nan
8501;BME280;4288;48.484;10.024;2023-03-04T14:55:20;95912.75;;;1.43;nan
8501;BME280;4288;48.484;10.024;2023-03-04T14:57:49;95901.47;;;1.34;nan
8501;BME280;4288;48.484;10.024;2023-03-04T15:00:35;95898.22;;;1.20;nan
8501;BME280;4288;48.484;10.024;2023-03-04T15:03:18;95901.31;;;1.22;nan
8501;BME280;4288;48.484;10.024;2023-03-04T15:05:46;95894.03;;;1.02;nan
8501;BME280;4288;48.484;10.024;2023-03-04T15:08:21;95895.88;;;1.44;nan
8501;BME280;4288;48.484;10.024;2023-03-04T15:10:54;95897.69;;;1.61;nan
8501;BME280;4288;48.484;10.024;2023-03-04T15:13:37;95897.88;;;1.56;nan
8501;BME280;4288;48.484;10.024;2023-03-04T15:16:07;95890.75;;;1.39;nan
8501;BME280;4288;48.484;10.024;2023-03-04T15:18:35;95898.81;;;1.60;nan
8501;BME280;4288;48.484;10.024;2023-03-04T15:21:04;95897.13;;;1.30;nan
8501;BME280;4288;48.484;10.024;2023-03-04T15:23:32;95905.31;;;1.45;nan
8501;BME280;4288;48.484;10.024;2023-03-04T15:26:02;95890.00;;;1.30;nan
8501;BME280;4288;48.484;10.024;2023-03-04T15:28:34;95899.75;;;1.21;nan
8501;BME280;4288;48.484;10.024;2023-03-04T15:31:01;95894.50;;;0.96;nan
8501;BME280;4288;48.484;10.024;2023-03-04T15:33:29;95898.22;;;1.03;nan
8501;BME280;4288;48.484;10.024;2023-03-04T15:35:59;95899.28;;;1.28;nan
8501;BME280;4288;48.484;10.024;2023-03-04T15:38:28;95900.69;;;1.17;nan
8501;BME280;4288;48.484;10.024;2023-03-04T15:40:56;95888.63;;;0.99;nan
8501;BME280;4288;48.484;10.024;2023-03-04T15:43:24;95892.00;;;1.08;nan
8501;BME280;4288;48.484;10.024;2023-03-04T15:45:52;95888.00;;;1.10;nan
8501;BME280;4288;48.484;10.024;2023-03-04T15:48:20;95894.19;;;0.97;nan
8501;BME280;4288;48.484;10.024;2023-03-04T15:50:53;95898.81;;;0.83;nan
8501;BME280;4288;48.484;10.024;2023-03-04T15:53:27;95889.97;;;0.62;nan
8501;BME280;4288;48.484;10.024;2023-03-04T15:55:57;95889.47;;;0.51;nan
8501;BME280;4288;48.484;10.024;2023-03-04T15:58:25;95891.31;;;0.51;nan
8501;BME280;4288;48.484;10.024;2023-03-04T16:00:52;95893.47;;;0.40;nan
8501;BME280;4288;48.484;10.024;2023-03-04T16:03:20;95892.84;;;0.43;nan
8501;BME280;4288;48.484;10.024;2023-03-04T16:05:50;95889.31;;;0.48;nan
8501;BME280;4288;48.484;10.024;2023-03-04T16:08:20;95886.50;;;0.27;nan
8501;BME280;4288;48.484;10.024;2023-03-04T16:10:50;95891.56;;;0.24;nan
8501;BME280;4288;48.484;10.024;2023-03-04T16:13:20;95896.34;;;0.22;nan
8501;BME280;4288;48.484;10.024;2023-03-04T16:15:48;95895.75;;;0.33;nan
8501;BME280;4288;48.484;10.024;2023-03-04T16:18:16;95897.75;;;0.19;nan
8501;BME280;4288;48.484;10.024;2023-03-04T16:20:46;95892.03;;;0.17;nan
8501;BME280;4288;48.484;10.024;2023-03-04T16:23:18;95893.41;;;0.15;nan
8501;BME280;4288;48.484;10.024;2023-03-04T16:25:49;95890.63;;;0.20;nan
8501;BME280;4288;48.484;10.024;2023-03-04T16:28:17;95887.88;;;0.33;nan
8501;BME280;4288;48.484;10.024;2023-03-04T16:30:45;95886.34;;;0.32;nan
8501;BME280;4288;48.484;10.024;2023-03-04T16:33:12;95898.38;;;0.25;nan
8501;BME280;4288;48.484;10.024;2023-03-04T16:35:42;95890.94;;;0.18;nan
8501;BME280;4288;48.484;10.024;2023-03-04T16:38:22;95881.94;;;0.11;nan
8501;BME280;4288;48.484;10.024;2023-03-04T16:40:50;95892.34;;;0.24;nan
8501;BME280;4288;48.484;10.024;2023-03-04T16:43:18;95901.44;;;0.10;nan
8501;BME280;4288;48.484;10.024;2023-03-04T16:45:45;95903.75;;;0.11;nan
8501;BME280;4288;48.484;10.024;2023-03-04T16:48:13;95887.81;;;0.08;nan
8501;BME280;4288;48.484;10.024;2023-03-04T16:50:41;95893.41;;;0.15;nan
8501;BME280;4288;48.484;10.024;2023-03-04T16:53:25;95899.06;;;0.08;nan
8501;BME280;4288;48.484;10.024;2023-03-04T16:55:53;95901.22;;;0.06;nan
8501;BME280;4288;48.484;10.024;2023-03-04T16:58:20;95900.66;;;0.09;nan
8501;BME280;4288;48.484;10.024;2023-03-04T17:00:47;95894.75;;;0.12;nan
8501;BME280;4288;48.484;10.024;2023-03-04T17:03:14;95908.69;;;0.13;nan
8501;BME280;4288;48.484;10.024;2023-03-04T17:05:41;95909.25;;;0.01;nan
8501;BME280;4288;48.484;10.024;2023-03-04T17:08:09;95904.00;;;0.01;nan
8501;BME280;4288;48.484;10.024;2023-03-04T17:10:37;95908.72;;;-0.10;nan
8501;BME280;4288;48.484;10.024;2023-03-04T17:13:05;95916.97;;;-0.03;nan
8501;BME280;4288;48.484;10.024;2023-03-04T17:15:33;95916.03;;;0.02;nan
8501;BME280;4288;48.484;10.024;2023-03-04T17:18:01;95926.16;;;-0.14;nan
8501;BME280;4288;48.484;10.024;2023-03-04T17:20:29;95922.63;;;-0.18;nan
8501;BME280;4288;48.484;10.024;2023-03-04T17:22:56;95917.75;;;-0.02;nan
8501;BME280;4288;48.484;10.024;2023-03-04T17:25:23;95930.44;;;0.05;nan
8501;BME280;4288;48.484;10.024;2023-03-04T17:27:51;95937.84;;;0.03;nan
8501;BME280;4288;48.484;10.024;2023-03-04T17:30:18;95935.44;;;0.15;nan
8501;BME280;4288;48.484;10.024;2023-03-04T17:32:46;95933.78;;;-0.04;nan
8501;BME280;4288;48.484;10.024;2023-03-04T17:35:13;95947.31;;;-0.19;nan
8501;BME280;4288;48.484;10.024;2023-03-04T17:37:40;95946.97;;;-0.26;nan
8501;BME280;4288;48.484;10.024;2023-03-04T17:40:10;95945.94;;;-0.16;nan
8501;BME280;4288;48.484;10.024;2023-03-04T17:42:39;95945.09;;;-0.25;nan
8501;BME280;4288;48.484;10.024;2023-03-04T17:45:10;95947.72;;;-0.25;nan
8501;BME280;4288;48.484;10.024;2023-03-04T17:47:37;95954.38;;;-0.28;nan
8501;BME280;4288;48.484;10.024;2023-03-04T17:50:06;95956.41;;;-0.25;nan
8501;BME280;4288;48.484;10.024;2023-03-04T17:52:33;95957.81;;;-0.19;nan
8501;BME280;4288;48.484;10.024;2023-03-04T17:55:00;95955.94;;;0.04;nan
8501;BME280;4288;48.484;10.024;2023-03-04T17:57:27;95957.09;;;-0.11;nan
8501;BME280;4288;48.484;10.024;2023-03-04T17:59:54;95953.75;;;-0.03;nan
8501;BME280;4288;48.484;10.024;2023-03-04T18:02:23;95959.81;;;-0.24;nan
8501;BME280;4288;48.484;10.024;2023-03-04T18:04:50;95963.22;;;-0.24;nan
8501;BME280;4288;48.484;10.024;2023-03-04T18:07:17;95965.69;;;0.04;nan
8501;BME280;4288;48.484;10.024;2023-03-04T18:09:44;95967.38;;;-0.01;nan
8501;BME280;4288;48.484;10.024;2023-03-04T18:12:12;95976.19;;;0.04;nan
8501;BME280;4288;48.484;10.024;2023-03-04T18:14:39;95976.50;;;-0.20;nan
8501;BME280;4288;48.484;10.024;2023-03-04T18:17:06;95979.19;;;-0.12;nan
8501;BME280;4288;48.484;10.024;2023-03-04T18:19:35;95974.28;;;-0.05;nan
8501;BME280;4288;48.484;10.024;2023-03-04T18:22:02;95971.19;;;-0.07;nan
8501;BME280;4288;48.484;10.024;2023-03-04T18:24:29;95971.19;;;-0.07;nan
8501;BME280;4288;48.484;10.024;2023-03-04T18:26:56;95978.59;;;-0.09;nan
8501;BME280;4288;48.484;10.024;2023-03-04T18:29:23;95978.41;;;-0.12;nan
8501;BME280;4288;48.484;10.024;2023-03-04T18:31:52;95976.94;;;-0.27;nan
8501;BME280;4288;48.484;10.024;2023-03-04T18:34:19;95972.88;;;-0.33;nan
8501;BME280;4288;48.484;10.024;2023-03-04T18:36:47;95971.97;;;-0.28;nan
8501;BME280;4288;48.484;10.024;2023-03-04T18:39:16;95980.97;;;-0.21;nan
8501;BME280;4288;48.484;10.024;2023-03-04T18:41:43;95972.63;;;-0.23;nan
8501;BME280;4288;48.484;10.024;2023-03-04T18:44:11;95970.06;;;-0.14;nan
8501;BME280;4288;48.484;10.024;2023-03-04T18:46:41;95959.97;;;0.02;nan
8501;BME280;4288;48.484;10.024;2023-03-04T18:49:09;95953.34;;;-0.18;nan
8501;BME280;4288;48.484;10.024;2023-03-04T18:51:38;95945.00;;;-0.20;nan
8501;BME280;4288;48.484;10.024;2023-03-04T18:54:07;95944.13;;;-0.38;nan
8501;BME280;4288;48.484;10.024;2023-03-04T18:56:37;95936.41;;;-0.34;nan
8501;BME280;4288;48.484;10.024;2023-03-04T18:59:10;95942.75;;;-0.35;nan
8501;BME280;4288;48.484;10.024;2023-03-04T19:01:39;95937.50;;;-0.35;nan
8501;BME280;4288;48.484;10.024;2023-03-04T19:04:06;95936.56;;;-0.39;nan
8501;BME280;4288;48.484;10.024;2023-03-04T19:06:34;95934.56;;;-0.34;nan
8501;BME280;4288;48.484;10.024;2023-03-04T19:09:01;95936.34;;;-0.21;nan
8501;BME280;4288;48.484;10.024;2023-03-04T19:11:31;95935.38;;;-0.25;nan
8501;BME280;4288;48.484;10.024;2023-03-04T19:13:58;95939.91;;;-0.17;nan
8501;BME280;4288;48.484;10.024;2023-03-04T19:16:25;95943.31;;;-0.16;nan
8501;BME280;4288;48.484;10.024;2023-03-04T19:18:52;95934.84;;;-0.13;nan
8501;BME280;4288;48.484;10.024;2023-03-04T19:21:19;95927.09;;;-0.18;nan
8501;BME280;4288;48.484;10.024;2023-03-04T19:23:46;95923.75;;;-0.10;nan
8501;BME280;4288;48.484;10.024;2023-03-04T19:26:13;95927.31;;;-0.06;nan
8501;BME280;4288;48.484;10.024;2023-03-04T19:28:42;95929.47;;;-0.08;nan
8501;BME280;4288;48.484;10.024;2023-03-04T19:31:09;95927.97;;;-0.01;nan
8501;BME280;4288;48.484;10.024;2023-03-04T19:33:38;95929.97;;;0.03;nan
8501;BME280;4288;48.484;10.024;2023-03-04T19:36:07;95935.22;;;0.03;nan
8501;BME280;4288;48.484;10.024;2023-03-04T19:38:36;95931.22;;;0.05;nan
8501;BME280;4288;48.484;10.024;2023-03-04T19:41:11;95923.00;;;-0.02;nan
8501;BME280;4288;48.484;10.024;2023-03-04T19:43:39;95924.88;;;0.06;nan
8501;BME280;4288;48.484;10.024;2023-03-04T19:46:08;95928.03;;;0.17;nan
8501;BME280;4288;48.484;10.024;2023-03-04T19:48:37;95930.00;;;0.11;nan
8501;BME280;4288;48.484;10.024;2023-03-04T19:51:13;95925.72;;;0.15;nan
8501;BME280;4288;48.484;10.024;2023-03-04T19:53:40;95928.19;;;0.20;nan
8501;BME280;4288;48.484;10.024;2023-03-04T19:56:08;95924.94;;;0.15;nan
8501;BME280;4288;48.484;10.024;2023-03-04T19:58:35;95925.81;;;0.10;nan
8501;BME280;4288;48.484;10.024;2023-03-04T20:01:03;95922.59;;;0.13;nan
8501;BME280;4288;48.484;10.024;2023-03-04T20:03:31;95919.34;;;0.16;nan
8501;BME280;4288;48.484;10.024;2023-03-04T20:06:04;95930.66;;;0.17;nan
8501;BME280;4288;48.484;10.024;2023-03-04T20:08:32;95925.44;;;0.25;nan
8501;BME280;4288;48.484;10.024;2023-03-04T20:10:59;95924.66;;;0.25;nan
8501;BME280;4288;48.484;10.024;2023-03-04T20:13:27;95921.88;;;0.21;nan
8501;BME280;4288;48.484;10.024;2023-03-04T20:15:54;95933.78;;;0.27;nan
8501;BME280;4288;48.484;10.024;2023-03-04T20:18:21;95930.97;;;0.24;nan
8501;BME280;4288;48.484;10.024;2023-03-04T20:20:50;95924.78;;;0.20;nan
8501;BME280;4288;48.484;10.024;2023-03-04T20:23:17;95921.41;;;0.19;nan
8501;BME280;4288;48.484;10.024;2023-03-04T20:25:46;95925.25;;;0.22;nan
8501;BME280;4288;48.484;10.024;2023-03-04T20:28:13;95926.78;;;0.14;nan
8501;BME280;4288;48.484;10.024;2023-03-04T20:30:40;95929.91;;;0.25;nan
8501;BME280;4288;48.484;10.024;2023-03-04T20:33:07;95924.66;;;0.25;nan
8501;BME280;4288;48.484;10.024;2023-03-04T20:35:34;95922.66;;;0.30;nan
8501;BME280;4288;48.484;10.024;2023-03-04T20:38:04;95922.03;;;0.25;nan
8501;BME280;4288;48.484;10.024;2023-03-04T20:40:31;95922.34;;;0.23;nan
8501;BME280;4288;48.484;10.024;2023-03-04T20:43:00;95917.25;;;0.27;nan
8501;BME280;4288;48.484;10.024;2023-03-04T20:45:30;95927.31;;;0.33;nan
8501;BME280;4288;48.484;10.024;2023-03-04T20:47:57;95923.28;;;0.36;nan
8501;BME280;4288;48.484;10.024;2023-03-04T20:50:24;95913.25;;;0.29;nan
8501;BME280;4288;48.484;10.024;2023-03-04T20:52:52;95911.09;;;0.31;nan
8501;BME280;4288;48.484;10.024;2023-03-04T20:55:20;95910.78;;;0.33;nan
8501;BME280;4288;48.484;10.024;2023-03-04T20:57:48;95908.00;;;0.38;nan
8501;BME280;4288;48.484;10.024;2023-03-04T21:00:16;95914.63;;;0.35;nan
8501;BME280;4288;48.484;10.024;2023-03-04T21:02:43;95906.47;;;0.37;nan
8501;BME280;4288;48.484;10.024;2023-03-04T21:05:10;95906.94;;;0.39;nan
8501;BME280;4288;48.484;10.024;2023-03-04T21:07:38;95902.63;;;0.43;nan
8501;BME280;4288;48.484;10.024;2023-03-04T21:10:06;95894.84;;;0.38;nan
8501;BME280;4288;48.484;10.024;2023-03-04T21:12:34;95900.91;;;0.38;nan
8501;BME280;4288;48.484;10.024;2023-03-04T21:15:02;95902.16;;;0.41;nan
8501;BME280;4288;48.484;10.024;2023-03-04T21:17:29;95891.91;;;0.39;nan
8501;BME280;4288;48.484;10.024;2023-03-04T21:19:56;95898.69;;;0.32;nan
8501;BME280;4288;48.484;10.024;2023-03-04T21:22:23;95897.31;;;0.34;nan
8501;BME280;4288;48.484;10.024;2023-03-04T21:24:51;95895.75;;;0.33;nan
8501;BME280;4288;48.484;10.024;2023-03-04T21:27:18;95886.03;;;0.34;nan
8501;BME280;4288;48.484;10.024;2023-03-04T21:29:47;95885.91;;;0.39;nan
8501;BME280;4288;48.484;10.024;2023-03-04T21:32:18;95880.47;;;0.35;nan
8501;BME280;4288;48.484;10.024;2023-03-04T21:34:48;95883.88;;;0.36;nan
8501;BME280;4288;48.484;10.024;2023-03-04T21:37:17;95882.34;;;0.43;nan
8501;BME280;4288;48.484;10.024;2023-03-04T21:39:44;95878.66;;;0.44;nan
8501;BME280;4288;48.484;10.024;2023-03-04T21:42:11;95874.75;;;0.42;nan
8501;BME280;4288;48.484;10.024;2023-03-04T21:44:38;95883.44;;;0.42;nan
8501;BME280;4288;48.484;10.024;2023-03-04T21:47:06;95880.34;;;0.49;nan
8501;BME280;4288;48.484;10.024;2023-03-04T21:49:33;95876.94;;;0.48;nan
8501;BME280;4288;48.484;10.024;2023-03-04T21:52:00;95873.22;;;0.49;nan
8501;BME280;4288;48.484;10.024;2023-03-04T21:54:28;95879.59;;;0.57;nan
8501;BME280;4288;48.484;10.024;2023-03-04T21:56:55;95875.06;;;0.49;nan
8501;BME280;4288;48.484;10.024;2023-03-04T21:59:22;95870.47;;;0.54;nan
8501;BME280;4288;48.484;10.024;2023-03-04T22:01:49;95872.00;;;0.55;nan
8501;BME280;4288;48.484;10.024;2023-03-04T22:04:18;95874.47;;;0.52;nan
8501;BME280;4288;48.484;10.024;2023-03-04T22:06:45;95870.31;;;0.59;nan
8501;BME280;4288;48.484;10.024;2023-03-04T22:09:12;95872.78;;;0.56;nan
8501;BME280;4288;48.484;10.024;2023-03-04T22:11:39;95871.06;;;0.51;nan
8501;BME280;4288;48.484;10.024;2023-03-04T22:14:06;95866.75;;;0.55;nan
8501;BME280;4288;48.484;10.024;2023-03-04T22:16:34;95876.34;;;0.60;nan
8501;BME280;4288;48.484;10.024;2023-03-04T22:19:02;95867.38;;;0.52;nan
8501;BME280;4288;48.484;10.024;2023-03-04T22:21:31;95857.31;;;0.54;nan
8501;BME280;4288;48.484;10.024;2023-03-04T22:23:58;95854.84;;;0.58;nan
8501;BME280;4288;48.484;10.024;2023-03-04T22:26:26;95851.28;;;0.54;nan
8501;BME280;4288;48.484;10.024;2023-03-04T22:28:57;95853.75;;;0.59;nan
8501;BME280;4288;48.484;10.024;2023-03-04T22:31:28;95851.75;;;0.56;nan
8501;BME280;4288;48.484;10.024;2023-03-04T22:33:56;95845.88;;;0.59;nan
8501;BME280;4288;48.484;10.024;2023-03-04T22:36:23;95843.41;;;0.54;nan
8501;BME280;4288;48.484;10.024;2023-03-04T22:38:51;95844.03;;;0.59;nan
8501;BME280;4288;48.484;10.024;2023-03-04T22:41:20;95844.78;;;0.68;nan
8501;BME280;4288;48.484;10.024;2023-03-04T22:43:48;95843.72;;;0.69;nan
8501;BME280;4288;48.484;10.024;2023-03-04T22:46:17;95841.41;;;0.68;nan
8501;BME280;4288;48.484;10.024;2023-03-04T22:48:46;95832.88;;;0.71;nan
8501;BME280;4288;48.484;10.024;2023-03-04T22:51:13;95828.25;;;0.76;nan
8501;BME280;4288;48.484;10.024;2023-03-04T22:53:40;95831.34;;;0.78;nan
8501;BME280;4288;48.484;10.024;2023-03-04T22:56:10;95833.50;;;0.76;nan